createdAt,value
2023-03-31T00:00:11.318Z,2.3
2023-03-31T00:02:06.838Z,2.7
2023-03-31T00:04:03.907Z,2.2
2023-03-31T00:06:03.737Z,2.5
2023-03-31T00:08:02.451Z,2.6
2023-03-31T00:10:16.717Z,2.5
2023-03-31T00:12:02.538Z,2.6
2023-03-31T00:14:02.803Z,2.4
2023-03-31T00:16:05.572Z,2.3
2023-03-31T00:18:02.668Z,2.3
2023-03-31T00:20:05.118Z,2.2
2023-03-31T00:22:04.718Z,2.5
2023-03-31T00:24:05.332Z,2.5
2023-03-31T00:26:02.781Z,2.6
2023-03-31T00:28:02.637Z,2.3
2023-03-31T00:30:02.544Z,2.3
2023-03-31T00:32:02.663Z,2.5
2023-03-31T00:34:03.287Z,2.0
2023-03-31T00:36:05.714Z,2.6
2023-03-31T00:38:02.630Z,2.1
2023-03-31T00:40:05.796Z,2.3
2023-03-31T00:42:03.936Z,2.2
2023-03-31T00:44:08.549Z,2.6
2023-03-31T00:46:14.777Z,2.2
2023-03-31T00:48:09.732Z,2.3
2023-03-31T00:50:03.265Z,2.5
2023-03-31T00:52:07.640Z,2.2
2023-03-31T00:54:07.996Z,2.0
2023-03-31T00:56:09.122Z,2.0
2023-03-31T00:58:06.725Z,2.2
2023-03-31T01:00:14.042Z,2.5
2023-03-31T01:02:04.825Z,2.5
2023-03-31T01:04:04.636Z,2.3
2023-03-31T01:06:06.228Z,2.2
2023-03-31T01:08:06.012Z,2.4
2023-03-31T01:10:04.548Z,2.3
2023-03-31T01:12:07.337Z,2.3
2023-03-31T01:14:03.692Z,2.2
2023-03-31T01:16:03.885Z,2.2
2023-03-31T01:18:04.393Z,2.3
2023-03-31T01:20:15.103Z,2.1
2023-03-31T01:22:21.543Z,2.2
2023-03-31T01:24:23.624Z,2.6
2023-03-31T01:26:21.505Z,2.2
2023-03-31T01:28:08.100Z,2.3
2023-03-31T01:30:21.743Z,2.6
2023-03-31T01:32:17.705Z,2.3
2023-03-31T01:34:21.476Z,2.4
2023-03-31T01:36:21.831Z,2.4
2023-03-31T01:38:21.540Z,2.5
2023-03-31T01:40:21.476Z,2.4
2023-03-31T01:42:13.491Z,2.3
2023-03-31T01:44:12.419Z,2.1
2023-03-31T01:46:09.317Z,2.6
2023-03-31T01:48:08.678Z,2.2
2023-03-31T01:50:06.598Z,2.6
2023-03-31T01:52:11.081Z,2.4
2023-03-31T01:54:17.138Z,2.9
2023-03-31T01:56:08.243Z,3.3
2023-03-31T01:58:08.422Z,2.4
2023-03-31T02:00:09.017Z,2.4
2023-03-31T02:02:08.250Z,2.9
2023-03-31T02:04:09.887Z,3.4
2023-03-31T02:06:09.890Z,2.8
2023-03-31T02:08:07.750Z,2.6
2023-03-31T02:10:07.218Z,2.4
2023-03-31T02:12:07.675Z,2.3
2023-03-31T02:14:08.414Z,2.4
2023-03-31T02:16:09.174Z,2.2
2023-03-31T02:18:10.781Z,2.5
2023-03-31T02:20:10.736Z,2.2
2023-03-31T02:22:05.468Z,2.3
2023-03-31T02:24:07.240Z,2.1
2023-03-31T02:26:08.454Z,2.3
2023-03-31T02:28:08.679Z,2.4
2023-03-31T02:30:03.653Z,2.7
2023-03-31T02:32:13.554Z,2.5
2023-03-31T02:34:03.500Z,2.8
2023-03-31T02:36:03.475Z,2.8
2023-03-31T02:38:06.108Z,2.3
2023-03-31T02:40:09.804Z,2.3
2023-03-31T02:42:06.649Z,2.3
2023-03-31T02:44:02.452Z,2.4
2023-03-31T02:46:02.517Z,2.3
2023-03-31T02:48:03.610Z,2.5
2023-03-31T02:50:05.394Z,2.4
2023-03-31T02:52:21.374Z,2.4
2023-03-31T02:54:21.505Z,2.4
2023-03-31T02:56:16.996Z,2.0
2023-03-31T02:58:23.291Z,2.0
2023-03-31T03:00:09.155Z,2.2
2023-03-31T03:02:14.181Z,2.5
2023-03-31T03:04:21.093Z,2.0
2023-03-31T03:06:14.229Z,1.9
2023-03-31T03:08:17.965Z,2.0
2023-03-31T03:10:08.517Z,2.0
2023-03-31T03:12:11.864Z,2.4
2023-03-31T03:14:13.046Z,2.4
2023-03-31T03:16:10.344Z,2.4
2023-03-31T03:18:06.013Z,2.2
2023-03-31T03:20:07.674Z,1.9
2023-03-31T03:22:03.355Z,2.5
2023-03-31T03:24:03.096Z,2.4
2023-03-31T03:26:02.500Z,2.3
2023-03-31T03:28:03.218Z,2.3
2023-03-31T03:30:04.017Z,2.4
2023-03-31T03:32:02.471Z,2.3
2023-03-31T03:34:02.825Z,2.6
2023-03-31T03:36:02.893Z,3.0
2023-03-31T03:38:02.441Z,2.3
2023-03-31T03:40:03.288Z,2.5
2023-03-31T03:42:03.550Z,2.5
2023-03-31T03:44:03.457Z,2.7
2023-03-31T03:46:02.729Z,2.2
2023-03-31T03:48:02.977Z,2.4
2023-03-31T03:50:03.316Z,2.4
2023-03-31T03:52:03.513Z,2.6
2023-03-31T03:54:03.339Z,2.4
2023-03-31T03:56:02.513Z,2.1
2023-03-31T03:58:03.360Z,2.3
2023-03-31T04:00:08.031Z,2.4
2023-03-31T04:02:02.693Z,2.3
2023-03-31T04:04:02.611Z,1.9
2023-03-31T04:06:02.491Z,2.5
2023-03-31T04:08:03.905Z,2.4
2023-03-31T04:10:03.054Z,2.2
2023-03-31T04:12:03.545Z,2.5
2023-03-31T04:14:02.698Z,2.3
2023-03-31T04:16:02.528Z,2.4
2023-03-31T04:18:02.604Z,2.2
2023-03-31T04:20:08.701Z,2.3
2023-03-31T04:22:04.286Z,2.2
2023-03-31T04:24:04.205Z,2.2
2023-03-31T04:26:03.410Z,2.2
2023-03-31T04:28:03.020Z,2.1
2023-03-31T04:30:02.523Z,2.3
2023-03-31T04:32:02.775Z,2.1
2023-03-31T04:34:06.137Z,2.1
2023-03-31T04:36:06.872Z,2.1
2023-03-31T04:38:03.506Z,2.2
2023-03-31T04:40:09.315Z,2.2
2023-03-31T04:42:02.572Z,2.2
2023-03-31T04:44:03.095Z,2.5
2023-03-31T04:46:02.772Z,2.3
2023-03-31T04:48:03.060Z,2.1
2023-03-31T04:50:02.607Z,2.2
2023-03-31T04:52:02.542Z,1.9
2023-03-31T04:54:03.472Z,2.4
2023-03-31T04:56:03.462Z,2.1
2023-03-31T04:58:02.807Z,2.1
2023-03-31T05:00:07.003Z,2.3
2023-03-31T05:02:02.500Z,2.3
2023-03-31T05:04:03.645Z,2.0
2023-03-31T05:06:02.503Z,2.1
2023-03-31T05:08:02.726Z,2.0
2023-03-31T05:10:02.610Z,2.2
2023-03-31T05:12:02.859Z,2.0
2023-03-31T05:14:02.476Z,2.4
2023-03-31T05:16:06.810Z,2.5
2023-03-31T05:18:02.476Z,2.6
2023-03-31T05:20:05.632Z,2.5
2023-03-31T05:22:03.442Z,2.0
2023-03-31T05:24:04.242Z,2.1
2023-03-31T05:26:02.446Z,2.4
2023-03-31T05:28:02.581Z,2.4
2023-03-31T05:30:03.958Z,2.5
2023-03-31T05:32:02.763Z,2.4
2023-03-31T05:34:03.256Z,2.2
2023-03-31T05:36:02.573Z,2.3
2023-03-31T05:38:02.465Z,2.2
2023-03-31T05:40:04.489Z,2.1
2023-03-31T05:42:02.640Z,2.3
2023-03-31T05:44:03.149Z,2.4
2023-03-31T05:46:03.314Z,2.3
2023-03-31T05:48:03.275Z,2.3
2023-03-31T05:50:06.909Z,2.6
2023-03-31T05:52:02.638Z,2.4
2023-03-31T05:54:02.766Z,2.5
2023-03-31T05:56:06.630Z,2.4
2023-03-31T05:58:02.772Z,2.2
2023-03-31T06:00:05.716Z,2.3
2023-03-31T06:02:02.736Z,2.6
2023-03-31T06:04:02.626Z,2.5
2023-03-31T06:06:04.747Z,2.4
2023-03-31T06:08:03.747Z,2.6
2023-03-31T06:10:02.764Z,2.4
2023-03-31T06:12:02.983Z,2.6
2023-03-31T06:14:02.989Z,2.4
2023-03-31T06:16:02.912Z,2.5
2023-03-31T06:18:02.600Z,2.5
2023-03-31T06:20:13.104Z,2.6
2023-03-31T06:22:02.678Z,2.5
2023-03-31T06:24:02.520Z,2.4
2023-03-31T06:26:05.733Z,2.5
2023-03-31T06:28:02.453Z,2.4
2023-03-31T06:30:02.671Z,2.2
2023-03-31T06:32:04.443Z,2.4
2023-03-31T06:34:03.226Z,2.6
2023-03-31T06:36:04.909Z,2.7
2023-03-31T06:38:02.430Z,2.4
2023-03-31T06:40:04.007Z,2.5
2023-03-31T06:42:03.257Z,2.9
2023-03-31T06:44:03.106Z,2.7
2023-03-31T06:46:02.776Z,2.2
2023-03-31T06:48:02.514Z,2.5
2023-03-31T06:50:02.461Z,2.4
2023-03-31T06:52:03.477Z,2.6
2023-03-31T06:54:02.710Z,2.4
2023-03-31T06:56:04.216Z,2.5
2023-03-31T06:58:02.783Z,2.7
2023-03-31T07:00:03.700Z,2.5
2023-03-31T07:02:02.476Z,2.5
2023-03-31T07:04:02.500Z,2.4
2023-03-31T07:06:02.625Z,2.7
2023-03-31T07:08:03.143Z,2.0
2023-03-31T07:10:02.667Z,2.1
2023-03-31T07:12:04.672Z,2.5
2023-03-31T07:14:02.667Z,2.7
2023-03-31T07:16:04.543Z,2.8
2023-03-31T07:18:02.755Z,2.3
2023-03-31T07:20:03.380Z,2.3
2023-03-31T07:22:02.688Z,2.1
2023-03-31T07:24:02.564Z,2.3
2023-03-31T07:26:03.651Z,2.6
2023-03-31T07:28:04.434Z,2.7
2023-03-31T07:30:02.772Z,2.2
2023-03-31T07:32:02.460Z,2.2
2023-03-31T07:34:04.303Z,2.2
2023-03-31T07:36:12.926Z,2.3
2023-03-31T07:38:02.490Z,2.6
2023-03-31T07:40:04.576Z,2.4
2023-03-31T07:42:02.506Z,2.3
2023-03-31T07:44:02.455Z,2.4
2023-03-31T07:46:02.782Z,2.3
2023-03-31T07:48:03.080Z,2.4
2023-03-31T07:50:03.651Z,2.4
2023-03-31T07:52:03.435Z,2.3
2023-03-31T07:54:03.043Z,2.5
2023-03-31T07:56:03.250Z,2.6
2023-03-31T07:58:02.717Z,2.5
2023-03-31T08:00:06.077Z,2.6
2023-03-31T08:02:03.175Z,2.5
2023-03-31T08:04:03.323Z,2.7
2023-03-31T08:06:02.514Z,2.3
2023-03-31T08:08:02.497Z,2.2
2023-03-31T08:10:05.819Z,2.5
2023-03-31T08:12:02.503Z,2.4
2023-03-31T08:14:02.647Z,2.5
2023-03-31T08:16:02.712Z,2.3
2023-03-31T08:18:05.001Z,2.4
2023-03-31T08:20:08.042Z,2.2
2023-03-31T08:22:02.716Z,2.3
2023-03-31T08:24:02.452Z,2.5
2023-03-31T08:26:14.511Z,2.2
2023-03-31T08:28:02.517Z,2.3
2023-03-31T08:30:04.040Z,2.4
2023-03-31T08:32:02.587Z,2.3
2023-03-31T08:34:02.805Z,2.4
2023-03-31T08:36:04.582Z,2.3
2023-03-31T08:38:03.306Z,2.8
2023-03-31T08:40:04.718Z,2.1
2023-03-31T08:42:10.414Z,2.1
2023-03-31T08:44:07.476Z,2.7
2023-03-31T08:46:04.973Z,2.4
2023-03-31T08:48:08.110Z,2.5
2023-03-31T08:50:11.274Z,2.3
2023-03-31T08:52:06.200Z,2.6
2023-03-31T08:54:07.530Z,2.6
2023-03-31T08:56:08.067Z,2.4
2023-03-31T08:58:09.295Z,2.5
2023-03-31T09:00:06.385Z,2.3
2023-03-31T09:02:11.099Z,2.2
2023-03-31T09:04:21.628Z,2.7
2023-03-31T09:06:08.259Z,2.7
2023-03-31T09:08:12.564Z,2.5
2023-03-31T09:10:16.990Z,2.9
2023-03-31T09:12:10.183Z,2.7
2023-03-31T09:14:21.454Z,2.4
2023-03-31T09:16:08.833Z,2.6
2023-03-31T09:18:10.865Z,2.4
2023-03-31T09:20:12.922Z,2.5
2023-03-31T09:22:05.755Z,2.3
2023-03-31T09:24:09.027Z,2.2
2023-03-31T09:26:04.756Z,2.6
2023-03-31T09:28:09.739Z,2.6
2023-03-31T09:30:09.349Z,2.4
2023-03-31T09:32:14.120Z,2.2
2023-03-31T09:34:14.181Z,2.2
2023-03-31T09:36:08.705Z,2.6
2023-03-31T09:38:03.275Z,2.6
2023-03-31T09:40:07.237Z,2.3
2023-03-31T09:42:03.200Z,2.5
2023-03-31T09:44:02.874Z,2.3
2023-03-31T09:46:09.679Z,2.4
2023-03-31T09:48:08.754Z,2.4
2023-03-31T09:50:02.707Z,2.8
2023-03-31T09:52:15.426Z,2.3
2023-03-31T09:54:10.330Z,2.0
2023-03-31T09:56:05.835Z,2.6
2023-03-31T09:58:07.701Z,2.7
2023-03-31T10:00:13.307Z,2.6
2023-03-31T10:02:14.215Z,2.3
2023-03-31T10:04:07.519Z,2.1
2023-03-31T10:06:08.694Z,2.2
2023-03-31T10:08:19.298Z,2.4
2023-03-31T10:10:03.381Z,2.5
2023-03-31T10:12:06.853Z,2.4
2023-03-31T10:14:05.047Z,2.4
2023-03-31T10:16:07.692Z,2.3
2023-03-31T10:18:03.750Z,2.3
2023-03-31T10:20:16.419Z,2.6
2023-03-31T10:22:05.887Z,2.3
2023-03-31T10:24:08.184Z,2.0
2023-03-31T10:26:04.856Z,2.5
2023-03-31T10:28:03.135Z,2.3
2023-03-31T10:30:09.144Z,2.2
2023-03-31T10:32:05.577Z,1.9
2023-03-31T10:34:07.273Z,2.2
2023-03-31T10:36:08.515Z,2.2
2023-03-31T10:38:07.319Z,2.5
2023-03-31T10:40:06.091Z,2.4
2023-03-31T10:42:03.391Z,2.3
2023-03-31T10:44:04.814Z,2.2
2023-03-31T10:46:03.688Z,2.8
2023-03-31T10:48:02.649Z,2.2
2023-03-31T10:50:05.240Z,2.2
2023-03-31T10:52:02.501Z,2.0
2023-03-31T10:54:03.677Z,2.3
2023-03-31T10:56:13.419Z,2.0
2023-03-31T10:58:15.903Z,2.4
2023-03-31T11:00:18.679Z,2.1
2023-03-31T11:02:21.500Z,2.1
2023-03-31T11:04:21.659Z,2.5
2023-03-31T11:06:11.416Z,2.2
2023-03-31T11:08:19.974Z,2.3
2023-03-31T11:10:18.104Z,2.0
2023-03-31T11:12:12.092Z,2.2
2023-03-31T11:14:11.274Z,1.9
2023-03-31T11:16:12.909Z,2.1
2023-03-31T11:18:22.398Z,2.3
2023-03-31T11:20:13.186Z,2.2
2023-03-31T11:22:11.921Z,2.2
2023-03-31T11:24:13.554Z,2.4
2023-03-31T11:26:07.927Z,1.9
2023-03-31T11:28:21.178Z,2.2
2023-03-31T11:30:10.881Z,2.0
2023-03-31T11:32:21.562Z,2.2
2023-03-31T11:34:20.437Z,2.3
2023-03-31T11:36:17.093Z,2.1
2023-03-31T11:38:21.756Z,2.1
2023-03-31T11:40:21.678Z,2.2
2023-03-31T11:42:08.570Z,2.1
2023-03-31T11:44:06.123Z,2.2
2023-03-31T11:46:08.671Z,2.2
2023-03-31T11:48:10.323Z,2.0
2023-03-31T11:50:07.278Z,2.0
2023-03-31T11:52:09.362Z,2.0
2023-03-31T11:54:11.517Z,2.5
2023-03-31T11:56:06.949Z,2.5
2023-03-31T11:58:08.140Z,2.2
2023-03-31T12:00:13.156Z,2.7
2023-03-31T12:02:16.366Z,2.5
2023-03-31T12:04:09.428Z,2.5
2023-03-31T12:06:11.459Z,2.3
2023-03-31T12:08:08.422Z,2.5
2023-03-31T12:10:12.770Z,2.5
2023-03-31T12:12:09.537Z,2.3
2023-03-31T12:14:17.083Z,2.8
2023-03-31T12:16:09.547Z,2.1
2023-03-31T12:18:12.201Z,2.6
2023-03-31T12:20:10.045Z,2.5
2023-03-31T12:22:10.977Z,2.6
2023-03-31T12:24:03.327Z,2.7
2023-03-31T12:26:11.342Z,2.7
2023-03-31T12:28:03.494Z,2.1
2023-03-31T12:30:06.779Z,2.3
2023-03-31T12:32:10.163Z,2.5
2023-03-31T12:34:06.167Z,2.3
2023-03-31T12:36:11.823Z,2.8
2023-03-31T12:38:19.132Z,2.4
2023-03-31T12:40:12.373Z,2.6
2023-03-31T12:42:23.519Z,2.4
2023-03-31T12:44:13.237Z,2.5
2023-03-31T12:46:19.078Z,2.8
2023-03-31T12:48:20.926Z,2.4
2023-03-31T12:50:18.504Z,2.4
2023-03-31T12:52:05.952Z,2.6
2023-03-31T12:54:20.039Z,2.6
2023-03-31T12:56:03.421Z,2.7
2023-03-31T12:58:21.645Z,2.7
2023-03-31T13:00:20.474Z,2.2
2023-03-31T13:02:20.023Z,2.2
2023-03-31T13:04:17.592Z,2.5
2023-03-31T13:06:04.883Z,2.8
2023-03-31T13:08:03.688Z,2.8
2023-03-31T13:10:21.755Z,2.6
2023-03-31T13:12:09.076Z,2.7
2023-03-31T13:14:05.811Z,2.3
2023-03-31T13:16:03.271Z,2.3
2023-03-31T13:18:06.706Z,2.7
2023-03-31T13:20:17.122Z,2.7
2023-03-31T13:22:06.312Z,2.2
2023-03-31T13:24:06.914Z,2.4
2023-03-31T13:26:04.159Z,2.7
2023-03-31T13:28:14.261Z,2.8
2023-03-31T13:30:03.039Z,2.5
2023-03-31T13:32:17.110Z,2.7
2023-03-31T13:34:03.586Z,2.5
2023-03-31T13:36:21.184Z,2.5
2023-03-31T13:38:12.977Z,2.3
2023-03-31T13:40:21.447Z,2.8
2023-03-31T13:42:16.248Z,2.4
2023-03-31T13:44:21.738Z,2.6
2023-03-31T13:46:21.991Z,2.8
2023-03-31T13:48:14.652Z,2.7
2023-03-31T13:50:21.463Z,2.4
2023-03-31T13:52:04.703Z,2.3
2023-03-31T13:54:21.543Z,2.5
2023-03-31T13:56:23.350Z,2.5
2023-03-31T13:58:33.466Z,2.6
2023-03-31T14:00:18.228Z,2.9
2023-03-31T14:02:22.072Z,2.5
2023-03-31T14:04:14.277Z,2.3
2023-03-31T14:06:07.185Z,2.5
2023-03-31T14:08:07.767Z,2.8
2023-03-31T14:10:03.786Z,2.4
2023-03-31T14:12:21.670Z,2.7
2023-03-31T14:14:06.160Z,2.5
2023-03-31T14:16:02.917Z,2.4
2023-03-31T14:18:04.436Z,2.4
2023-03-31T14:20:21.740Z,2.5
2023-03-31T14:22:12.830Z,2.6
2023-03-31T14:24:13.061Z,2.2
2023-03-31T14:26:11.011Z,2.7
2023-03-31T14:28:16.377Z,2.2
2023-03-31T14:30:12.459Z,2.4
2023-03-31T14:32:13.321Z,2.7
2023-03-31T14:34:18.996Z,2.4
2023-03-31T14:36:09.412Z,2.4
2023-03-31T14:38:06.221Z,2.5
2023-03-31T14:40:05.131Z,2.5
2023-03-31T14:42:06.289Z,2.5
2023-03-31T14:44:04.552Z,2.6
2023-03-31T14:46:05.035Z,2.1
2023-03-31T14:48:11.066Z,2.5
2023-03-31T14:50:12.910Z,2.3
2023-03-31T14:52:14.028Z,2.1
2023-03-31T14:54:02.675Z,2.4
2023-03-31T14:56:06.379Z,2.4
2023-03-31T14:58:03.288Z,2.6
2023-03-31T15:00:07.814Z,2.2
2023-03-31T15:02:04.556Z,2.3
2023-03-31T15:04:08.753Z,2.2
2023-03-31T15:06:05.009Z,2.4
2023-03-31T15:08:06.858Z,2.2
2023-03-31T15:10:04.170Z,2.4
2023-03-31T15:12:05.375Z,2.2
2023-03-31T15:14:05.516Z,2.4
2023-03-31T15:16:20.657Z,2.5
2023-03-31T15:18:03.254Z,2.6
2023-03-31T15:20:21.741Z,2.4
2023-03-31T15:22:11.172Z,2.2
2023-03-31T15:24:05.367Z,2.5
2023-03-31T15:26:08.811Z,2.2
2023-03-31T15:28:06.146Z,2.3
2023-03-31T15:30:06.009Z,2.2
2023-03-31T15:32:06.310Z,2.3
2023-03-31T15:34:14.291Z,2.3
2023-03-31T15:36:02.853Z,2.2
2023-03-31T15:38:05.829Z,2.1
2023-03-31T15:40:06.744Z,2.4
2023-03-31T15:42:04.532Z,2.1
2023-03-31T15:44:07.627Z,2.4
2023-03-31T15:46:02.740Z,2.2
2023-03-31T15:48:04.312Z,2.3
2023-03-31T15:50:12.706Z,2.1
2023-03-31T15:52:03.532Z,1.9
2023-03-31T15:54:03.570Z,2.2
2023-03-31T15:56:03.523Z,2.0
2023-03-31T15:58:02.484Z,2.0
2023-03-31T16:00:06.557Z,2.3
2023-03-31T16:02:03.320Z,2.3
2023-03-31T16:04:09.037Z,1.9
2023-03-31T16:06:09.157Z,1.8
2023-03-31T16:08:03.606Z,1.8
2023-03-31T16:10:07.654Z,2.0
2023-03-31T16:12:10.663Z,1.9
2023-03-31T16:14:10.054Z,1.9
2023-03-31T16:16:10.811Z,1.8
2023-03-31T16:18:06.050Z,1.8
2023-03-31T16:20:08.139Z,1.9
2023-03-31T16:22:04.293Z,1.9
2023-03-31T16:24:03.624Z,1.8
2023-03-31T16:26:03.363Z,1.7
2023-03-31T16:28:03.661Z,1.9
2023-03-31T16:30:07.759Z,2.1
2023-03-31T16:32:10.714Z,1.7
2023-03-31T16:34:05.283Z,1.7
2023-03-31T16:36:03.358Z,1.9
2023-03-31T16:38:02.775Z,1.8
2023-03-31T16:40:04.537Z,1.6
2023-03-31T16:42:03.324Z,1.8
2023-03-31T16:44:03.599Z,1.6
2023-03-31T16:46:04.188Z,1.7
2023-03-31T16:48:15.436Z,1.7
2023-03-31T16:50:06.471Z,1.7
2023-03-31T16:52:04.513Z,1.5
2023-03-31T16:54:02.472Z,1.4
2023-03-31T16:56:03.478Z,1.5
2023-03-31T16:58:03.421Z,1.6
2023-03-31T17:00:02.683Z,1.6
2023-03-31T17:02:02.575Z,1.4
2023-03-31T17:04:03.512Z,1.4
2023-03-31T17:06:06.835Z,1.5
2023-03-31T17:08:02.935Z,1.2
2023-03-31T17:10:02.507Z,1.4
2023-03-31T17:12:02.851Z,1.4
2023-03-31T17:14:04.706Z,1.4
2023-03-31T17:16:16.491Z,1.6
2023-03-31T17:18:04.542Z,1.4
2023-03-31T17:20:03.840Z,1.5
2023-03-31T17:22:03.090Z,1.3
2023-03-31T17:24:03.286Z,1.3
2023-03-31T17:26:05.724Z,1.2
2023-03-31T17:28:03.731Z,1.2
2023-03-31T17:32:02.713Z,1.3
2023-03-31T17:34:03.192Z,1.3
2023-03-31T17:36:03.430Z,1.3
2023-03-31T17:38:03.742Z,1.3
2023-03-31T17:40:04.331Z,1.3
2023-03-31T17:42:03.610Z,1.5
2023-03-31T17:44:04.136Z,1.3
2023-03-31T17:46:04.539Z,1.3
2023-03-31T17:48:05.399Z,1.3
2023-03-31T17:50:02.616Z,1.3
2023-03-31T17:52:03.192Z,1.3
2023-03-31T17:54:03.390Z,1.2
2023-03-31T17:56:03.855Z,1.4
2023-03-31T17:58:02.901Z,1.3
2023-03-31T18:00:03.115Z,1.2
2023-03-31T18:02:02.993Z,1.2
2023-03-31T18:04:02.618Z,1.1
2023-03-31T18:06:04.876Z,1.2
2023-03-31T18:08:03.309Z,1.3
2023-03-31T18:10:05.215Z,1.0
2023-03-31T18:12:02.476Z,1.2
2023-03-31T18:14:03.047Z,1.1
2023-03-31T18:16:04.514Z,1.2
2023-03-31T18:18:03.762Z,1.4
2023-03-31T18:20:02.731Z,1.1
2023-03-31T18:22:02.676Z,1.1
2023-03-31T18:24:02.465Z,1.3
2023-03-31T18:26:06.002Z,1.0
2023-03-31T18:28:03.053Z,1.2
2023-03-31T18:30:02.774Z,1.1
2023-03-31T18:32:03.430Z,1.1
2023-03-31T18:34:03.000Z,1.2
2023-03-31T18:36:03.492Z,1.2
2023-03-31T18:38:02.732Z,1.1
2023-03-31T18:40:03.247Z,1.2
2023-03-31T18:42:03.189Z,1.0
2023-03-31T18:44:02.625Z,1.1
2023-03-31T18:46:02.477Z,1.1
2023-03-31T18:48:03.310Z,1.1
2023-03-31T18:50:04.198Z,1.0
2023-03-31T18:52:03.838Z,0.9
2023-03-31T18:54:03.339Z,1.0
2023-03-31T18:56:02.952Z,1.1
2023-03-31T18:58:03.180Z,1.2
2023-03-31T19:00:03.237Z,1.0
2023-03-31T19:02:02.698Z,1.0
2023-03-31T19:04:02.655Z,0.9
2023-03-31T19:06:05.588Z,1.0
2023-03-31T19:08:03.721Z,1.1
2023-03-31T19:10:02.609Z,0.9
2023-03-31T19:12:02.775Z,1.0
2023-03-31T19:14:02.439Z,1.1
2023-03-31T19:16:02.752Z,0.9
2023-03-31T19:18:03.260Z,1.2
2023-03-31T19:20:04.474Z,1.1
2023-03-31T19:22:03.326Z,0.9
2023-03-31T19:24:02.608Z,1.0
2023-03-31T19:26:03.280Z,1.0
2023-03-31T19:28:03.362Z,1.1
2023-03-31T19:30:05.589Z,0.9
2023-03-31T19:32:02.804Z,1.1
2023-03-31T19:34:02.891Z,1.1
2023-03-31T19:36:02.620Z,1.0
2023-03-31T19:38:03.229Z,1.0
2023-03-31T19:40:04.646Z,1.1
2023-03-31T19:42:03.508Z,1.1
2023-03-31T19:44:02.619Z,1.1
2023-03-31T19:46:02.936Z,0.9
2023-03-31T19:48:02.543Z,1.0
2023-03-31T19:50:04.307Z,1.1
2023-03-31T19:52:02.979Z,1.1
2023-03-31T19:54:03.490Z,1.1
2023-03-31T19:56:05.240Z,1.0
2023-03-31T19:58:02.828Z,1.1
2023-03-31T20:00:04.255Z,1.0
2023-03-31T20:02:04.733Z,1.0
2023-03-31T20:04:02.551Z,1.0
2023-03-31T20:06:04.243Z,1.0
2023-03-31T20:08:03.228Z,1.0
2023-03-31T20:10:02.439Z,1.2
2023-03-31T20:12:02.789Z,1.1
2023-03-31T20:14:03.497Z,1.1
2023-03-31T20:16:05.506Z,1.0
2023-03-31T20:18:02.673Z,1.0
2023-03-31T20:20:03.420Z,1.1
2023-03-31T20:22:02.550Z,1.2
2023-03-31T20:24:04.031Z,1.0
2023-03-31T20:26:03.586Z,1.2
2023-03-31T20:28:02.657Z,0.9
2023-03-31T20:30:04.084Z,1.0
2023-03-31T20:32:02.585Z,1.1
2023-03-31T20:34:02.881Z,1.0
2023-03-31T20:36:04.910Z,1.0
2023-03-31T20:38:02.634Z,1.1
2023-03-31T20:40:03.545Z,1.2
2023-03-31T20:42:02.648Z,1.1
2023-03-31T20:44:03.456Z,1.0
2023-03-31T20:46:04.438Z,1.2
2023-03-31T20:48:02.845Z,1.2
2023-03-31T20:50:03.531Z,1.1
2023-03-31T20:52:03.916Z,0.9
2023-03-31T20:54:03.583Z,1.0
2023-03-31T20:56:02.428Z,1.1
2023-03-31T20:58:02.634Z,1.1
2023-03-31T21:00:03.396Z,1.1
2023-03-31T21:02:03.112Z,1.1
2023-03-31T21:04:05.118Z,1.3
2023-03-31T21:06:04.941Z,0.8
2023-03-31T21:08:02.432Z,1.1
2023-03-31T21:10:04.005Z,1.0
2023-03-31T21:12:04.358Z,1.0
2023-03-31T21:14:03.392Z,0.9
2023-03-31T21:16:04.158Z,0.9
2023-03-31T21:18:03.525Z,1.0
2023-03-31T21:20:03.910Z,0.9
2023-03-31T21:22:02.452Z,0.9
2023-03-31T21:24:03.698Z,0.9
2023-03-31T21:26:05.685Z,0.8
2023-03-31T21:28:02.452Z,1.0
2023-03-31T21:30:03.653Z,1.0
2023-03-31T21:32:02.627Z,0.9
2023-03-31T21:34:02.819Z,0.9
2023-03-31T21:36:03.831Z,0.9
2023-03-31T21:38:04.198Z,1.0
2023-03-31T21:40:03.658Z,1.1
2023-03-31T21:42:02.735Z,0.9
2023-03-31T21:44:03.024Z,0.9
2023-03-31T21:46:03.511Z,1.0
2023-03-31T21:48:02.645Z,1.1
2023-03-31T21:50:03.336Z,0.9
2023-03-31T21:52:03.935Z,1.0
2023-03-31T21:54:02.822Z,0.9
2023-03-31T21:56:02.551Z,1.0
2023-03-31T21:58:04.190Z,1.0
2023-03-31T22:00:02.615Z,1.0
2023-03-31T22:02:03.132Z,1.0
2023-03-31T22:04:02.525Z,1.2
2023-03-31T22:06:04.504Z,1.1
2023-03-31T22:08:02.486Z,1.0
2023-03-31T22:10:03.753Z,1.1
2023-03-31T22:12:02.489Z,1.1
2023-03-31T22:14:03.730Z,1.1
2023-03-31T22:16:02.471Z,1.1
2023-03-31T22:18:02.705Z,1.2
2023-03-31T22:20:04.642Z,1.2
2023-03-31T22:22:02.472Z,1.1
2023-03-31T22:24:02.518Z,1.2
2023-03-31T22:26:03.483Z,1.3
2023-03-31T22:28:06.003Z,1.3
2023-03-31T22:30:04.369Z,1.1
2023-03-31T22:32:02.645Z,1.0
2023-03-31T22:34:02.451Z,0.9
2023-03-31T22:36:03.411Z,0.9
2023-03-31T22:38:04.438Z,1.1
2023-03-31T22:40:03.274Z,1.0
2023-03-31T22:42:03.118Z,1.0
2023-03-31T22:44:03.074Z,0.9
2023-03-31T22:46:04.505Z,0.9
2023-03-31T22:48:02.470Z,1.0
2023-03-31T22:50:03.653Z,1.1
2023-03-31T22:52:03.187Z,0.7
2023-03-31T22:54:02.766Z,0.8
2023-03-31T22:56:05.594Z,1.0
2023-03-31T22:58:02.464Z,0.9
2023-03-31T23:00:03.596Z,1.0
2023-03-31T23:02:04.094Z,0.8
2023-03-31T23:04:03.695Z,0.9
2023-03-31T23:06:04.667Z,0.9
2023-03-31T23:08:03.168Z,0.8
2023-03-31T23:10:02.528Z,1.0
2023-03-31T23:12:02.543Z,0.9
2023-03-31T23:14:04.080Z,0.7
2023-03-31T23:16:06.142Z,0.8
2023-03-31T23:18:02.592Z,0.8
2023-03-31T23:20:03.500Z,0.8
2023-03-31T23:22:02.495Z,0.8
2023-03-31T23:24:05.077Z,0.8
2023-03-31T23:26:03.962Z,0.8
2023-03-31T23:28:02.724Z,0.8
2023-03-31T23:30:03.347Z,0.8
2023-03-31T23:32:03.571Z,0.9
2023-03-31T23:34:03.038Z,0.9
2023-03-31T23:36:06.938Z,0.8
2023-03-31T23:38:03.536Z,0.7
2023-03-31T23:40:03.700Z,0.9
2023-03-31T23:42:02.838Z,0.8
2023-03-31T23:44:02.752Z,0.8
2023-03-31T23:46:05.687Z,0.9
2023-03-31T23:48:03.154Z,0.9
2023-03-31T23:50:04.359Z,0.8
2023-03-31T23:52:02.582Z,0.9
2023-03-31T23:54:03.069Z,0.8
2023-03-31T23:56:05.160Z,0.8
2023-03-31T23:58:03.433Z,0.7
